Anamosa, IA

1:20 AM CDT on October 26, 2014 (GMT -0500)
Whittier | Change Station
CLOSE
Current Station
Personal Weather Station
Location: Springville, IA
Elevation: 885 ft
Nearby Weather Stations

Elev 885 ft 42.08 °N, 91.46 °W | Updated 50 seconds ago

Clear
Clear
44.3 °F
Feels Like 44 °F
N
0.0
Wind Variable Wind from NW
Gusts 0.0 mph

Today
High -- | Low -- °F
--% Chance of Precip.
Yesterday
High -- | Low -- °F
Precip. -- in
7:30 AM 6:06 PM
Waxing Crescent, 6% visible
Pressure 30.05 in
Visibility 10.0 miles
Clouds Clear
Windchill 44 °F
Dew Point 36 °F
Humidity 73%
Rainfall 0.00 in
Snow Depth Not available.
UV 0 out of 12
Pollen 1.50 out of 12
Air Quality Not available.
Flu Activity Sporadic
METAR KMXO 260615Z AUTO 00000KT 10SM CLR 05/02 A3005 RMK AO2

More Conditions Fewer Conditions

Pressure 30.05 in
Visibility 10.0 miles
Clouds Clear
Windchill 44 °F
Dew Point 36 °F
Humidity 73%
Rainfall 0.00 in
Snow Depth Not available.
UV 0 out of 12
Pollen 1.50 out of 12
Air Quality Not available.
Flu Activity Sporadic
METAR KMXO 260615Z AUTO 00000KT 10SM CLR 05/02 A3005 RMK AO2

More Conditions Fewer Conditions

10-Day Weather Forecast

Almanac

Astronomy

Oct. 26, 2014 Rise Set
Actual Time 7:30 AM CDT 6:06 PM CDT
Civil Twilight 7:01 AM CDT 6:35 PM CDT
Nautical Twilight 6:29 AM CDT 7:08 PM CDT
Astronomical Twilight 5:56 AM CDT 7:40 PM CDT
Moon 10:10 AM CDT 8:16 PM CDT
Length of Visible Light 11h 33m
Length of Day
10h 36m
Tomorrow will be 2m 36s shorter.
Waxing Crescent, 6% of the Moon is Illuminated
Today
Waxing Crescent
Oct 30
First Quarter
Nov 6
Full
Nov 14
Last Quarter
Nov 22
New

Today's Extremes

State Highs State Lows

Community

WunderPhotos

Upload Photos

1,765,114 photos uploaded!

Nearby

Snow Depth

Station Depth Elevation
No new snow has been reported.

Earthquake Activity

City Distance Mag. Time & Date
No recent earthquake activity has been reported nearby.
Minimum magnitude displayed is 2.5.

Coastal Water Temperatures

Place Temperature
No Stations Reporting

Nearby Weather Stations